createdAt,value
2022-08-19T00:03:30.781Z,11.43
2022-08-19T00:08:33.158Z,9.30
2022-08-19T00:13:35.307Z,8.48
2022-08-19T00:18:37.178Z,11.73
2022-08-19T00:23:39.070Z,13.93
2022-08-19T00:28:40.917Z,9.90
2022-08-19T00:33:44.196Z,11.73
2022-08-19T00:38:46.564Z,9.73
2022-08-19T00:44:03.828Z,8.73
2022-08-19T00:49:24.138Z,9.95
2022-08-19T00:54:32.554Z,14.70
2022-08-19T00:59:56.349Z,13.47
2022-08-19T01:05:05.574Z,9.57
2022-08-19T01:10:12.539Z,12.27
2022-08-19T01:15:19.685Z,11.70
2022-08-19T01:20:24.291Z,14.02
2022-08-19T01:25:40.653Z,9.95
2022-08-19T01:30:44.593Z,9.97
2022-08-19T01:35:53.625Z,13.55
2022-08-19T01:40:56.195Z,13.20
2022-08-19T01:45:58.042Z,14.05
2022-08-19T01:50:59.899Z,11.40
2022-08-19T01:56:02.866Z,16.40
2022-08-19T02:01:07.309Z,10.00
2022-08-19T02:06:09.843Z,10.65
2022-08-19T02:11:21.959Z,10.57
2022-08-19T02:16:24.681Z,15.68
2022-08-19T02:21:26.568Z,11.98
2022-08-19T02:26:28.549Z,13.77
2022-08-19T02:31:30.401Z,18.83
2022-08-19T02:36:32.258Z,13.80
2022-08-19T02:41:35.329Z,18.23
2022-08-19T02:46:37.539Z,16.60
2022-08-19T02:51:43.066Z,13.70
2022-08-19T02:56:46.264Z,14.02
2022-08-19T03:01:48.270Z,19.38
2022-08-19T03:06:50.371Z,12.68
2022-08-19T03:11:52.789Z,11.32
2022-08-19T03:16:55.621Z,9.38
2022-08-19T03:22:00.828Z,13.65
2022-08-19T03:27:05.513Z,11.35
2022-08-19T03:32:07.693Z,13.10
2022-08-19T03:37:29.823Z,12.43
2022-08-19T03:42:49.166Z,13.13
2022-08-19T03:47:51.312Z,15.18
2022-08-19T03:52:53.965Z,14.35
2022-08-19T03:57:59.064Z,13.80
2022-08-19T04:03:01.989Z,18.05
2022-08-19T04:08:09.687Z,13.82
2022-08-19T04:13:16.931Z,18.55
2022-08-19T04:18:18.711Z,15.52
2022-08-19T04:23:20.566Z,16.17
2022-08-19T04:28:25.511Z,14.88
2022-08-19T04:33:28.877Z,13.65
2022-08-19T04:38:30.837Z,12.50
2022-08-19T04:43:35.081Z,13.88
2022-08-19T04:48:49.207Z,22.40
2022-08-19T04:53:53.497Z,17.00
2022-08-19T04:58:57.588Z,18.35
2022-08-19T05:04:02.139Z,15.52
2022-08-19T05:09:06.153Z,16.55
2022-08-19T05:14:09.114Z,12.93
2022-08-19T05:19:29.326Z,15.18
2022-08-19T05:24:39.078Z,19.40
2022-08-19T05:29:49.697Z,15.10
2022-08-19T05:34:51.540Z,13.60
2022-08-19T05:39:54.091Z,16.92
2022-08-19T05:44:57.866Z,14.30
2022-08-19T05:50:00.358Z,14.05
2022-08-19T05:55:02.244Z,11.55
2022-08-19T06:00:11.042Z,12.63
2022-08-19T06:05:14.007Z,15.15
2022-08-19T06:10:16.158Z,9.88
2022-08-19T06:15:18.215Z,9.50
2022-08-19T06:20:34.329Z,9.55
2022-08-19T06:25:42.304Z,10.68
2022-08-19T06:30:44.277Z,9.85
2022-08-19T06:35:46.198Z,7.40
2022-08-19T06:40:47.980Z,12.20
2022-08-19T06:45:53.702Z,7.75
2022-08-19T06:50:55.718Z,9.55
2022-08-19T06:56:01.579Z,7.43
2022-08-19T07:01:08.585Z,6.50
2022-08-19T07:06:32.638Z,7.28
2022-08-19T07:11:38.478Z,8.18
2022-08-19T07:16:43.016Z,10.85
2022-08-19T07:21:47.526Z,14.95
2022-08-19T07:26:51.801Z,9.52
2022-08-19T07:31:57.377Z,8.63
2022-08-19T07:36:59.481Z,8.30
2022-08-19T07:42:08.223Z,10.73
2022-08-19T07:47:48.332Z,8.30
2022-08-19T07:52:32.532Z,7.50
2022-08-19T07:57:37.399Z,9.57
2022-08-19T08:02:40.556Z,9.02
2022-08-19T08:08:20.714Z,8.95
2022-08-19T08:13:29.854Z,13.00
2022-08-19T08:18:32.342Z,9.73
2022-08-19T08:23:34.354Z,11.75
2022-08-19T08:28:36.325Z,12.38
2022-08-19T08:33:38.401Z,9.75
2022-08-19T08:38:43.088Z,11.00
2022-08-19T08:43:53.275Z,10.02
2022-08-19T08:49:02.800Z,14.07
2022-08-19T08:54:09.766Z,11.63
2022-08-19T08:59:25.588Z,9.50
2022-08-19T09:04:28.859Z,10.23
2022-08-19T09:09:42.030Z,12.13
2022-08-19T09:15:13.106Z,8.43
2022-08-19T09:20:22.725Z,11.10
2022-08-19T09:25:26.952Z,7.65
2022-08-19T09:30:40.657Z,7.63
2022-08-19T09:35:49.618Z,8.40
2022-08-19T09:40:55.478Z,8.73
2022-08-19T09:45:59.228Z,11.02
2022-08-19T09:51:05.516Z,8.10
2022-08-19T09:56:07.713Z,7.57
2022-08-19T10:01:21.849Z,8.70
2022-08-19T10:06:44.131Z,11.05
2022-08-19T10:11:54.930Z,7.00
2022-08-19T10:16:59.317Z,5.82
2022-08-19T10:22:05.332Z,4.75
2022-08-19T10:27:14.164Z,5.90
2022-08-19T10:32:18.061Z,5.13
2022-08-19T10:37:29.146Z,5.15
2022-08-19T10:42:33.643Z,5.07
2022-08-19T10:47:35.543Z,3.70
2022-08-19T10:52:38.850Z,3.60
2022-08-19T11:03:04.597Z,3.83
2022-08-19T11:08:18.172Z,4.88
2022-08-19T11:13:26.321Z,4.40
2022-08-19T11:18:29.559Z,5.25
2022-08-19T11:23:31.564Z,3.05
2022-08-19T11:28:33.573Z,3.78
2022-08-19T11:33:35.603Z,2.85
2022-08-19T11:38:38.092Z,3.60
2022-08-19T11:43:40.773Z,3.15
2022-08-19T11:48:42.950Z,3.70
2022-08-19T11:53:45.684Z,3.67
2022-08-19T11:58:48.204Z,3.42
2022-08-19T12:03:52.165Z,6.00
2022-08-19T12:08:59.588Z,6.07
2022-08-19T12:14:04.513Z,8.35
2022-08-19T12:19:06.613Z,6.35
2022-08-19T12:24:08.814Z,9.13
2022-08-19T12:29:11.006Z,7.75
2022-08-19T12:34:13.017Z,7.65
2022-08-19T12:39:18.557Z,11.45
2022-08-19T12:44:29.458Z,10.65
2022-08-19T12:49:53.365Z,10.85
2022-08-19T12:54:58.505Z,10.95
2022-08-19T13:00:05.375Z,12.30
2022-08-19T13:10:16.474Z,16.45
2022-08-19T13:15:24.159Z,12.13
2022-08-19T13:20:26.929Z,14.38
2022-08-19T13:25:29.020Z,19.35
2022-08-19T13:30:49.554Z,12.93
2022-08-19T13:35:58.490Z,14.38
2022-08-19T13:41:10.996Z,15.15
2022-08-19T13:46:15.682Z,10.35
2022-08-19T13:51:19.036Z,20.50
2022-08-19T13:56:25.877Z,16.60
2022-08-19T14:01:28.509Z,22.95
2022-08-19T14:06:30.597Z,21.50
2022-08-19T14:11:32.631Z,19.48
2022-08-19T14:16:34.724Z,20.05
2022-08-19T14:21:41.385Z,25.70
2022-08-19T14:26:43.633Z,25.80
2022-08-19T14:31:45.637Z,23.85
2022-08-19T14:36:47.583Z,25.65
2022-08-19T14:41:52.388Z,24.63
2022-08-19T14:46:54.701Z,21.00
2022-08-19T14:51:57.620Z,21.45
2022-08-19T14:57:02.712Z,18.45
2022-08-19T15:02:33.232Z,19.02
2022-08-19T15:07:29.487Z,22.98
2022-08-19T15:12:31.785Z,18.52
2022-08-19T15:17:45.181Z,20.85
2022-08-19T15:22:48.560Z,17.48
2022-08-19T15:27:51.323Z,20.98
2022-08-19T15:32:53.643Z,23.20
2022-08-19T15:37:56.963Z,18.40
2022-08-19T15:42:59.459Z,24.75
2022-08-19T15:48:03.949Z,19.83
2022-08-19T15:53:10.387Z,18.88
2022-08-19T15:58:34.301Z,16.40
2022-08-19T16:03:55.033Z,22.33
2022-08-19T16:09:02.079Z,16.40
2022-08-19T16:14:04.465Z,16.88
2022-08-19T16:19:10.611Z,14.93
2022-08-19T16:24:16.721Z,15.80
2022-08-19T16:29:33.181Z,18.35
2022-08-19T16:39:39.244Z,17.40
2022-08-19T16:44:45.421Z,15.05
2022-08-19T16:49:54.129Z,16.02
2022-08-19T16:54:58.199Z,18.20
2022-08-19T17:00:00.199Z,12.38
2022-08-19T17:05:03.451Z,13.75
2022-08-19T17:10:06.168Z,16.08
2022-08-19T17:15:08.645Z,15.07
2022-08-19T17:20:10.974Z,16.48
2022-08-19T17:25:12.925Z,16.73
2022-08-19T17:30:14.928Z,18.42
2022-08-19T17:35:24.123Z,12.35
2022-08-19T17:40:29.842Z,13.77
2022-08-19T17:45:32.134Z,12.85
2022-08-19T17:50:35.456Z,13.57
2022-08-19T17:55:37.499Z,12.48
2022-08-19T18:00:39.570Z,12.02
2022-08-19T18:05:57.350Z,14.45
2022-08-19T18:11:00.489Z,15.98
2022-08-19T18:16:04.326Z,13.98
2022-08-19T18:21:07.334Z,13.25
2022-08-19T18:26:09.356Z,17.58
2022-08-19T18:31:11.375Z,15.85
2022-08-19T18:36:13.586Z,14.65
2022-08-19T18:41:34.344Z,15.68
2022-08-19T18:46:54.711Z,15.93
2022-08-19T18:52:01.898Z,16.13
2022-08-19T18:57:05.867Z,11.18
2022-08-19T19:02:08.734Z,12.20
2022-08-19T19:07:11.589Z,15.15
2022-08-19T19:12:14.308Z,16.38
2022-08-19T19:17:17.167Z,14.38
2022-08-19T19:22:22.148Z,18.27
2022-08-19T19:27:24.362Z,18.48
2022-08-19T19:32:36.880Z,23.65
2022-08-19T19:37:43.568Z,23.98
2022-08-19T19:42:48.267Z,21.83
2022-08-19T19:47:50.237Z,18.63
2022-08-19T19:52:52.080Z,18.67
2022-08-19T19:57:55.138Z,23.70
2022-08-19T20:02:57.263Z,19.45
2022-08-19T20:08:17.583Z,19.67
2022-08-19T20:13:21.805Z,22.08
2022-08-19T20:18:24.605Z,17.77
2022-08-19T20:23:26.725Z,16.85
2022-08-19T20:28:30.267Z,15.43
2022-08-19T20:33:32.317Z,19.50
2022-08-19T20:38:35.392Z,15.65
2022-08-19T20:43:38.449Z,17.60
2022-08-19T20:48:42.431Z,16.83
2022-08-19T20:53:45.171Z,16.27
2022-08-19T20:58:51.564Z,16.35
2022-08-19T21:03:56.591Z,17.92
2022-08-19T21:08:58.500Z,16.75
2022-08-19T21:14:00.856Z,17.95
2022-08-19T21:19:03.555Z,20.02
2022-08-19T21:24:05.596Z,15.35
2022-08-19T21:29:07.745Z,12.93
2022-08-19T21:34:09.650Z,15.30
2022-08-19T21:39:11.629Z,14.50
2022-08-19T21:44:13.517Z,16.13
2022-08-19T21:49:15.510Z,17.63
2022-08-19T21:54:17.242Z,16.25
2022-08-19T21:59:19.175Z,17.67
2022-08-19T22:04:21.236Z,15.98
2022-08-19T22:09:23.242Z,16.50
2022-08-19T22:14:25.072Z,14.00
2022-08-19T22:19:29.491Z,16.33
2022-08-19T22:24:31.336Z,14.13
2022-08-19T22:29:34.233Z,28.50
2022-08-19T22:34:36.802Z,17.50
2022-08-19T22:39:38.997Z,15.98
2022-08-19T22:44:40.891Z,15.15
2022-08-19T22:49:44.368Z,16.98
2022-08-19T22:54:48.313Z,16.85
2022-08-19T22:59:52.642Z,13.90
2022-08-19T23:04:56.124Z,14.52
2022-08-19T23:09:58.316Z,17.13
2022-08-19T23:15:15.848Z,16.70
2022-08-19T23:20:17.688Z,16.52
2022-08-19T23:25:24.806Z,15.98
2022-08-19T23:30:26.865Z,20.65
2022-08-19T23:35:34.059Z,18.25
2022-08-19T23:40:38.908Z,15.85
2022-08-19T23:45:50.864Z,16.52
2022-08-19T23:50:54.370Z,13.93
2022-08-19T23:55:56.374Z,15.13
